TimeCDT,TemperatureF,Dew PointF,Humidity,Sea Level PressureIn,VisibilityMPH,Wind Direction,Wind SpeedMPH,Gust SpeedMPH,PrecipitationIn,Events,Conditions,WindDirDegrees,DateUTC
12:52 AM,45.0,36.0,71,30.08,10.0,East,8.1,-,N/A,,Overcast,90,2013-04-17 05:52:00
1:00 AM,44.6,37.4,76,30.06,8.0,East,8.1,-,0.00,Rain-Thunderstorm,Light Rain,80,2013-04-17 06:00:00
1:17 AM,44.6,37.4,76,30.05,8.0,East,11.5,-,0.02,,Overcast,80,2013-04-17 06:17:00
1:52 AM,43.0,37.9,82,30.03,7.0,East,11.5,-,0.06,Rain-Thunderstorm,Light Rain,80,2013-04-17 06:52:00
2:15 AM,42.8,37.4,81,30.01,10.0,ENE,8.1,-,0.00,,Overcast,60,2013-04-17 07:15:00
2:40 AM,42.8,37.4,81,29.98,10.0,ENE,9.2,-,0.00,,Overcast,70,2013-04-17 07:40:00
2:52 AM,43.0,37.9,82,29.97,10.0,ENE,9.2,-,0.00,,Overcast,60,2013-04-17 07:52:00
3:52 AM,44.1,37.9,79,29.94,10.0,ENE,10.4,-,N/A,,Overcast,70,2013-04-17 08:52:00
4:12 AM,44.6,37.4,76,29.90,9.0,ENE,10.4,-,N/A,Rain-Thunderstorm,Light Rain,70,2013-04-17 09:12:00
4:35 AM,44.6,39.2,81,29.88,10.0,East,13.8,-,0.03,Rain,Light Rain,80,2013-04-17 09:35:00
4:52 AM,44.1,39.0,82,29.90,10.0,ENE,13.8,19.6,0.03,,Overcast,70,2013-04-17 09:52:00
5:09 AM,44.6,39.2,81,29.87,9.0,East,13.8,-,0.00,Rain-Thunderstorm,Light Rain,80,2013-04-17 10:09:00
5:33 AM,44.6,39.2,81,29.97,10.0,West,16.1,25.3,0.03,Rain-Thunderstorm,Light Rain,270,2013-04-17 10:33:00
5:52 AM,43.0,39.9,89,29.94,7.0,North,5.8,-,0.04,Rain-Thunderstorm,Light Rain,10,2013-04-17 10:52:00
6:12 AM,42.8,39.2,87,29.88,6.0,NE,10.4,-,0.00,,Overcast,40,2013-04-17 11:12:00
6:52 AM,43.0,41.0,93,29.89,6.0,Variable,4.6,-,0.00,,Overcast,0,2013-04-17 11:52:00
6:59 AM,42.8,41.0,93,29.91,5.0,North,4.6,-,N/A,Thunderstorm,Overcast,350,2013-04-17 11:59:00
7:17 AM,42.8,41.0,93,29.90,1.0,North,5.8,-,0.09,Rain-Thunderstorm,Heavy Rain,10,2013-04-17 12:17:00
7:43 AM,42.8,39.2,87,29.93,3.0,North,3.5,-,0.17,Rain-Thunderstorm,Light Thunderstorms and Rain,350,2013-04-17 12:43:00
7:52 AM,42.1,39.9,92,29.94,2.0,North,3.5,-,0.18,Rain-Thunderstorm,Light Rain,10,2013-04-17 12:52:00
8:00 AM,41.0,39.2,93,29.92,1.5,NNE,5.8,-,0.00,Rain-Thunderstorm,Light Thunderstorms and Rain,20,2013-04-17 13:00:00
8:25 AM,42.8,39.2,87,29.92,1.2,North,5.8,-,0.01,Rain,Light Rain,10,2013-04-17 13:25:00
8:52 AM,42.1,41.0,96,29.94,1.8,NNE,8.1,-,0.02,Rain,Light Rain,30,2013-04-17 13:52:00
9:01 AM,42.8,41.0,93,29.92,2.0,NNE,9.2,-,0.00,Rain,Light Rain,30,2013-04-17 14:01:00
9:17 AM,42.8,41.0,93,29.91,4.0,NNE,9.2,-,0.00,,Overcast,30,2013-04-17 14:17:00
9:52 AM,43.0,41.0,93,29.92,9.0,NE,10.4,-,0.00,,Overcast,40,2013-04-17 14:52:00
10:52 AM,44.1,42.1,93,29.91,10.0,NE,9.2,-,N/A,,Overcast,40,2013-04-17 15:52:00
11:52 AM,44.1,42.1,93,29.88,7.0,ENE,9.2,-,0.03,Rain,Light Rain,60,2013-04-17 16:52:00
12:03 PM,44.6,42.8,93,29.87,1.8,NE,6.9,-,0.07,Rain,Heavy Rain,50,2013-04-17 17:03:00
12:12 PM,44.6,42.8,93,29.86,3.0,ENE,8.1,-,0.08,Rain,Light Rain,70,2013-04-17 17:12:00
12:41 PM,44.6,42.8,93,29.85,10.0,East,9.2,-,0.10,Rain-Thunderstorm,Light Thunderstorms and Rain,80,2013-04-17 17:41:00
12:52 PM,45.0,43.0,93,29.85,10.0,ENE,10.4,-,0.10,Thunderstorm,Thunderstorm,70,2013-04-17 17:52:00
1:00 PM,44.6,42.8,93,29.83,9.0,East,9.2,-,0.00,Rain,Light Rain,80,2013-04-17 18:00:00
1:52 PM,46.9,45.0,93,29.82,6.0,ENE,3.5,-,0.00,Rain,Light Rain,60,2013-04-17 18:52:00
2:15 PM,46.4,44.6,93,29.79,2.5,ENE,5.8,-,0.03,Rain,Light Rain,60,2013-04-17 19:15:00
2:24 PM,46.4,44.6,93,29.79,3.0,NE,5.8,-,0.03,Rain,Light Rain,40,2013-04-17 19:24:00
2:33 PM,46.4,44.6,93,29.78,2.0,NNE,3.5,-,0.03,Rain,Light Rain,20,2013-04-17 19:33:00
2:47 PM,46.4,46.4,100,29.78,1.8,NNE,4.6,-,0.03,,Overcast,20,2013-04-17 19:47:00
2:52 PM,46.9,45.0,93,29.79,1.8,Variable,3.5,-,0.03,Rain,Light Rain,0,2013-04-17 19:52:00
3:00 PM,46.4,44.6,93,29.77,2.0,NNE,4.6,-,0.00,Rain,Light Rain,20,2013-04-17 20:00:00
3:52 PM,46.4,44.6,93,29.76,1.8,Variable,3.5,-,N/A,Rain-Thunderstorm,Light Thunderstorms and Rain,0,2013-04-17 20:52:00
4:00 PM,46.4,44.6,93,29.87,2.5,WNW,16.1,32.2,0.03,Rain-Thunderstorm,Light Thunderstorms and Rain,290,2013-04-17 21:00:00
4:12 PM,46.4,44.6,93,29.83,2.0,Variable,5.8,19.6,0.15,Rain-Thunderstorm,Heavy Thunderstorms and Rain,0,2013-04-17 21:12:00
4:19 PM,44.6,42.8,93,29.75,1.8,North,12.7,19.6,0.22,Thunderstorm,Overcast,360,2013-04-17 21:19:00
4:24 PM,44.6,42.8,93,29.76,3.0,NE,11.5,19.6,N/A,Rain-Thunderstorm,Thunderstorms and Rain,40,2013-04-17 21:24:00
4:46 PM,44.6,42.8,93,29.68,10.0,NNE,15.0,-,0.28,Rain-Thunderstorm,Thunderstorms and Rain,30,2013-04-17 21:46:00
4:52 PM,45.0,43.0,93,29.73,10.0,ENE,13.8,-,0.28,Rain-Thunderstorm,Thunderstorms and Rain,60,2013-04-17 21:52:00
4:57 PM,44.6,42.8,93,29.68,2.5,NE,15.0,-,0.08,Rain-Thunderstorm,Thunderstorms and Rain,40,2013-04-17 21:57:00
5:05 PM,44.6,42.8,93,29.69,1.2,NE,12.7,-,N/A,Rain-Thunderstorm,Thunderstorms and Rain,40,2013-04-17 22:05:00
5:26 PM,44.6,42.8,93,29.70,3.0,East,9.2,-,N/A,Rain-Thunderstorm,Thunderstorms and Rain,80,2013-04-17 22:26:00
5:37 PM,44.6,44.6,100,29.76,2.5,WSW,6.9,-,0.32,Rain-Thunderstorm,Light Thunderstorms and Rain,240,2013-04-17 22:37:00
5:44 PM,44.6,42.8,93,29.78,3.0,West,10.4,-,0.35,Rain-Thunderstorm,Thunderstorms and Rain,270,2013-04-17 22:44:00
5:48 PM,44.6,42.8,93,29.73,1.8,Variable,3.5,-,0.38,Rain-Thunderstorm,Heavy Thunderstorms and Rain,0,2013-04-17 22:48:00
5:52 PM,44.1,43.0,96,29.72,1.8,North,6.9,-,0.39,Rain-Thunderstorm,Heavy Thunderstorms and Rain,360,2013-04-17 22:52:00
5:56 PM,44.6,42.8,93,29.76,2.0,Variable,3.5,-,0.00,Rain-Thunderstorm,Light Thunderstorms and Rain,0,2013-04-17 22:56:00
6:04 PM,44.6,42.8,93,29.76,0.8,WNW,3.5,-,N/A,Rain-Thunderstorm,Thunderstorms and Rain,290,2013-04-17 23:04:00
6:13 PM,42.8,42.8,100,29.75,1.0,NW,4.6,-,N/A,Rain-Thunderstorm,Thunderstorms and Rain,320,2013-04-17 23:13:00
6:19 PM,42.8,42.8,100,29.75,0.8,Variable,4.6,-,N/A,Rain-Thunderstorm,Heavy Thunderstorms and Rain,0,2013-04-17 23:19:00
6:25 PM,42.8,42.8,100,29.76,1.2,Variable,4.6,-,N/A,Rain-Thunderstorm,Light Thunderstorms and Rain,0,2013-04-17 23:25:00
6:29 PM,42.8,42.8,100,29.76,3.0,WNW,5.8,-,N/A,Rain-Thunderstorm,Light Thunderstorms and Rain,290,2013-04-17 23:29:00
6:52 PM,43.0,41.0,93,29.80,6.0,WNW,6.9,-,N/A,Rain-Thunderstorm,Light Rain,300,2013-04-17 23:52:00
7:07 PM,42.8,42.8,100,29.78,2.5,Variable,6.9,-,0.00,Rain-Thunderstorm,Light Thunderstorms and Rain,0,2013-04-18 00:07:00
7:14 PM,42.8,41.0,93,29.77,4.0,Variable,6.9,-,0.00,Rain-Thunderstorm,Light Rain,0,2013-04-18 00:14:00
7:19 PM,42.8,41.0,93,29.77,4.0,Variable,5.8,-,0.00,Rain,Light Rain,0,2013-04-18 00:19:00
7:52 PM,43.0,41.0,93,29.78,5.0,NNW,8.1,18.4,0.01,,Overcast,330,2013-04-18 00:52:00
8:16 PM,42.8,41.0,93,29.77,8.0,NNW,4.6,17.3,N/A,,Overcast,340,2013-04-18 01:16:00
8:52 PM,43.0,41.0,93,29.77,8.0,North,8.1,-,N/A,,Overcast,360,2013-04-18 01:52:00
9:52 PM,43.0,41.0,93,29.75,10.0,NNE,12.7,20.7,N/A,,Overcast,20,2013-04-18 02:52:00
10:52 PM,43.0,39.9,89,29.77,10.0,North,9.2,-,0.01,,Overcast,360,2013-04-18 03:52:00
11:27 PM,41.0,37.4,87,29.73,10.0,North,11.5,20.7,N/A,,Overcast,10,2013-04-18 04:27:00
11:52 PM,41.0,37.9,89,29.76,10.0,North,10.4,18.4,N/A,,Overcast,360,2013-04-18 04:52:00